Impacts METAR Board
IDs:

KPHL - Philadelphia Intl, PA, US

Updated at: 0300 UTC 22 Jun 2018
Potential Impact None Slight Moderate High
Time 21/15Z 21/16Z 21/17Z 21/18Z 21/19Z 21/20Z 21/21Z 21/22Z 21/23Z 22/00Z 22/01Z 22/02Z 22/03Z
Temp72 73 75 77 76 78 79 80 81 78 76 75 73
Dewpt66 64 64 66 67 66 65 64 62 65 66 67 67
Altim29.79 29.79 29.79 29.79 29.78 29.78 29.77 29.76 29.77 29.79 29.81 29.83 29.84
VIS10 10 10 10 10 10 10 10 10 10 10 10 10
CIG18 23 32 30 48 90 250 250 250 250 250 250 250
CoverOVCBKNBKNOVCOVCBKNBKNBKNBKNBKNBKNBKNBKN
FltCatMVFRMVFRVFRMVFRVFRVFRVFRVFRVFRVFRVFRVFRVFR
WX--------------------------
WDir36010601201401501601500160180190200
WSpd10 10 5 5 5 4 4 4 0 4 6 4 5
WGst16 -- -- -- -- -- -- -- -- -- -- -- --
Raw hourly METARs
KPHL 211454Z 36010G16KT 10SM BKN018 OVC033 22/19 A2979 RMK AO2 RAB39E49 SLP088 P0000 60000 T02220189 51010
KPHL 211554Z 01010KT 10SM BKN023 BKN035 BKN080 23/18 A2979 RMK AO2 SLP088 T02280178
KPHL 211654Z 06005KT 10SM SCT023 BKN032 BKN085 24/18 A2979 RMK AO2 SLP088 T02390178
KPHL 211754Z 12005KT 10SM BKN030 BKN039 OVC080 25/19 A2979 RMK AO2 SLP087 60000 T02500189 10250 20217 58001
KPHL 211854Z 14005KT 10SM FEW036 OVC048 24/19 A2978 RMK AO2 SLP084 T02440194
KPHL 211954Z 15004KT 10SM SCT050 BKN090 26/19 A2978 RMK AO2 CIG 048 W SLP082 T02560189
KPHL 212054Z 16004KT 10SM SCT055 SCT100 BKN250 26/18 A2977 RMK AO2 SLP080 T02610183 57007
KPHL 212154Z 15004KT 10SM FEW055 SCT120 BKN250 27/18 A2976 RMK AO2 SLP078 T02670178
KPHL 212254Z 00000KT 10SM FEW055 BKN250 27/17 A2977 RMK AO2 SLP081 T02720167
KPHL 212354Z 16004KT 10SM FEW055 BKN250 26/18 A2979 RMK AO2 SLP088 T02560183 10278 20239 53008
KPHL 220054Z 18006KT 10SM BKN250 24/19 A2981 RMK AO2 SLP094 T02440189
KPHL 220154Z 19004KT 10SM BKN250 24/19 A2983 RMK AO2 SLP100 T02390194
KPHL 220254Z 20005KT 10SM BKN250 23/19 A2984 RMK AO2 SLP104 T02280194 51016



Page loaded:  03:17 UTC  |   08:17 PM Pacific  |   09:17 PM Mountain  |   10:17 PM Central  |   11:17 PM Eastern

 

ADVISORIES

FORECASTS

FORECASTS

OBSERVATIONS

USER TOOLS

ABOUT US